Lanesboro, Minnesota
Current Conditions -  °F | °C
As of 11:15 PM on Friday 24 Oct 2014 (Local Time) from KFKA Reporting Station
Moderate Fog Moderate Fog  
Wind Chill: 55°   Ceiling: 100
Heat Index: 55°   Visibility: 0.25mi
Dew Point: 55°   Wind: 5mph
Humidity: 97%   Direction: 220°SW
Pressure: 29.92"   Gusts: NA
Location:  43.72°N, 91.98°W
Report Text: KFKA 250415Z AUTO 22004KT 1/4SM FG OVC001 13/13 A2992 RMK AO2 T01300125
Loading
Personal Weather Stations






























Interactive Weather Map
Tropical Storm Tracking
New forecast layout! Learn more

10-Day Weather Forecast

Advertisements
Track Severe Weather on mobile